Amory, MS

4:46 AM CDT on September 19, 2014 (GMT -0500)
Amory | Change Station
CLOSE
Current Station
Personal Weather Station
Location: Amory, MS
Elevation: 233 ft
Nearby Weather Stations

Elev 233 ft 33.98 °N, 88.49 °W | Updated 19 seconds ago

Overcast
Overcast
68.3 °F
Feels Like 68.3 °F
N
2.0
Wind Variable Wind from NNE
Gusts 3.0 mph

Today
High -- | Low -- °F
--% Chance of Precip.
Yesterday
High -- | Low -- °F
Precip. -- in
6:39 AM 6:54 PM
Waning Crescent, 20% visible
Pressure 29.98 in
Visibility 0.5 miles
Clouds Mostly Cloudy 100 ft
Dew Point 67 °F
Humidity 96%
Rainfall 0.00 in
Snow Depth Not available.
UV 0 out of 12
Pollen 8.10 out of 12
Air Quality Not available.
Flu Activity Not available.
METAR KM40 190935Z AUTO 00000KT 1/2SM HZ BKN001 19/13 A2998 RMK AO2

More Conditions Fewer Conditions

Pressure 29.98 in
Visibility 0.5 miles
Clouds Mostly Cloudy 100 ft
Dew Point 67 °F
Humidity 96%
Rainfall 0.00 in
Snow Depth Not available.
UV 0 out of 12
Pollen 8.10 out of 12
Air Quality Not available.
Flu Activity Not available.
METAR KM40 190935Z AUTO 00000KT 1/2SM HZ BKN001 19/13 A2998 RMK AO2

More Conditions Fewer Conditions

Nowcast | as of 3:51 am CDT on September 19, 2014

Patchy dense fog in spots may reduce visibilities down to around one half mile in spots through 8 am CDT. Motorists should be on the lookout for sudden changes in visibility. The patchy nature of the fog will drop visibilities quickly in a short distance. In addition...visibilities may become severely restricted near rivers... lakes...bridges...and low lying areas.

×

10-Day Weather Forecast

Almanac

Astronomy

Sep. 19, 2014 Rise Set
Actual Time 6:39 AM CDT 6:54 PM CDT
Civil Twilight 6:14 AM CDT 7:19 PM CDT
Nautical Twilight 5:45 AM CDT 7:48 PM CDT
Astronomical Twilight 5:15 AM CDT 8:18 PM CDT
Moon 2:34 AM CDT 4:15 PM CDT
Length of Visible Light 13h 04m
Length of Day
12h 14m
Tomorrow will be 2m 6s shorter.
Waning Crescent, 20% of the Moon is Illuminated
Today
Waning Crescent
Sep 24
New
Oct 1
First Quarter
Oct 8
Full
Oct 15
Last Quarter

Today's Extremes

State Highs State Lows

Community

WunderPhotos

Upload Photos

1,754,583 photos uploaded!

Nearby

Snow Depth

Station Depth Elevation
No new snow has been reported.

Earthquake Activity

City Distance Mag. Time & Date
No recent earthquake activity has been reported nearby.
Minimum magnitude displayed is 2.5.

Coastal Water Temperatures

Place Temperature
No Stations Reporting

Nearby Weather Stations